Time,TemperatureF,DewpointF,PressureIn,WindDirection,WindDirectionDegrees,WindSpeedMPH,WindSpeedGustMPH,Humidity,HourlyPrecipIn,Conditions,Clouds,dailyrainin,SoftwareType,DateUTC
2013-10-16 00:00:00,71.3,70.1,29.98,NNW,336,0.0,2.0,96,0.00,,,0.00,Wunderground v.1.15,2013-10-16 04:00:00,
2013-10-16 00:05:00,71.2,70.0,29.98,NNW,336,0.0,2.0,96,0.00,,,0.00,Wunderground v.1.15,2013-10-16 04:05:00,
2013-10-16 00:10:00,71.2,70.3,29.98,NNW,337,1.0,2.0,97,0.00,,,0.00,Wunderground v.1.15,2013-10-16 04:10:00,
2013-10-16 00:20:00,71.1,70.2,29.98,NNW,338,1.0,1.0,97,0.00,,,0.00,Wunderground v.1.15,2013-10-16 04:20:00,
2013-10-16 00:25:00,71.0,70.1,29.98,NNW,338,1.0,2.0,97,0.00,,,0.00,Wunderground v.1.15,2013-10-16 04:25:00,
2013-10-16 00:35:00,71.1,70.2,29.98,NNW,340,1.0,2.0,97,0.00,,,0.00,Wunderground v.1.15,2013-10-16 04:35:00,
2013-10-16 00:40:00,71.2,70.3,29.98,NNW,340,1.0,2.0,97,0.00,,,0.00,Wunderground v.1.15,2013-10-16 04:40:00,
2013-10-16 00:45:00,71.2,70.3,29.98,NNW,340,0.0,2.0,97,0.00,,,0.00,Wunderground v.1.15,2013-10-16 04:45:00,
2013-10-16 00:55:00,71.2,70.3,29.97,NNW,341,0.0,2.0,97,0.00,,,0.00,Wunderground v.1.15,2013-10-16 04:55:00,
2013-10-16 01:05:00,71.2,70.3,29.97,NNW,341,0.0,2.0,97,0.00,,,0.00,Wunderground v.1.15,2013-10-16 05:05:00,
2013-10-16 01:10:00,71.1,70.2,29.97,NNW,341,0.0,2.0,97,0.00,,,0.00,Wunderground v.1.15,2013-10-16 05:10:00,
2013-10-16 01:20:00,71.1,70.2,29.97,NNW,341,0.0,2.0,97,0.00,,,0.00,Wunderground v.1.15,2013-10-16 05:20:00,
2013-10-16 01:25:00,71.0,70.1,29.97,NNW,341,0.0,2.0,97,0.00,,,0.00,Wunderground v.1.15,2013-10-16 05:25:00,
2013-10-16 01:35:00,70.8,69.9,29.97,NNW,341,0.0,2.0,97,0.00,,,0.00,Wunderground v.1.15,2013-10-16 05:35:00,
2013-10-16 01:40:00,70.8,69.9,29.97,NNW,341,0.0,2.0,97,0.00,,,0.00,Wunderground v.1.15,2013-10-16 05:40:00,
2013-10-16 01:50:00,70.7,69.8,29.97,NNW,341,0.0,2.0,97,0.00,,,0.00,Wunderground v.1.15,2013-10-16 05:50:00,
2013-10-16 01:55:00,70.9,70.0,29.97,NNW,341,0.0,2.0,97,0.00,,,0.00,Wunderground v.1.15,2013-10-16 05:55:00,
2013-10-16 02:05:00,71.0,70.1,29.97,NNW,341,0.0,4.0,97,0.00,,,0.00,Wunderground v.1.15,2013-10-16 06:05:00,
2013-10-16 02:15:00,71.1,70.2,29.97,NNW,346,1.0,2.0,97,0.00,,,0.00,Wunderground v.1.15,2013-10-16 06:15:00,
2013-10-16 02:25:00,71.1,70.2,29.97,NNW,346,1.0,2.0,97,0.00,,,0.00,Wunderground v.1.15,2013-10-16 06:25:00,
2013-10-16 02:30:00,71.2,70.3,29.97,NNW,346,0.0,2.0,97,0.00,,,0.00,Wunderground v.1.15,2013-10-16 06:30:00,
2013-10-16 02:40:00,71.2,70.3,29.97,NNW,346,0.0,2.0,97,0.00,,,0.00,Wunderground v.1.15,2013-10-16 06:40:00,
2013-10-16 02:45:00,71.3,70.4,29.97,NNW,346,0.0,2.0,97,0.00,,,0.00,Wunderground v.1.15,2013-10-16 06:45:00,
2013-10-16 02:55:00,71.3,70.4,29.97,NNW,346,0.0,3.0,97,0.00,,,0.00,Wunderground v.1.15,2013-10-16 06:55:00,
2013-10-16 03:00:00,71.4,70.5,29.97,NNW,346,0.0,2.0,97,0.00,,,0.00,Wunderground v.1.15,2013-10-16 07:00:00,
2013-10-16 03:10:00,71.4,70.5,29.97,NNW,346,1.0,1.0,97,0.00,,,0.00,Wunderground v.1.15,2013-10-16 07:10:00,
2013-10-16 03:20:00,71.4,70.5,29.97,NNW,347,1.0,3.0,97,0.00,,,0.00,Wunderground v.1.15,2013-10-16 07:20:00,
2013-10-16 03:30:00,71.4,70.5,29.97,North,353,1.0,1.0,97,0.00,,,0.00,Wunderground v.1.15,2013-10-16 07:30:00,
2013-10-16 03:40:00,71.3,70.1,29.96,North,353,1.0,1.0,96,0.00,,,0.00,Wunderground v.1.15,2013-10-16 07:40:00,
2013-10-16 03:50:00,71.3,70.1,29.96,North,353,0.0,2.0,96,0.00,,,0.00,Wunderground v.1.15,2013-10-16 07:50:00,
2013-10-16 04:00:00,71.3,70.1,29.96,North,353,1.0,1.0,96,0.00,,,0.00,Wunderground v.1.15,2013-10-16 08:00:00,
2013-10-16 04:05:00,71.3,70.1,29.96,North,353,1.0,2.0,96,0.00,,,0.00,Wunderground v.1.15,2013-10-16 08:05:00,
2013-10-16 04:15:00,71.2,70.0,29.96,North,358,1.0,3.0,96,0.00,,,0.00,Wunderground v.1.15,2013-10-16 08:15:00,
2013-10-16 04:20:00,71.2,70.0,29.96,North,358,1.0,1.0,96,0.00,,,0.00,Wunderground v.1.15,2013-10-16 08:20:00,
2013-10-16 04:30:00,71.1,69.9,29.96,North,358,1.0,1.0,96,0.00,,,0.00,Wunderground v.1.15,2013-10-16 08:30:00,
2013-10-16 04:35:00,71.1,69.9,29.96,North,358,0.0,2.0,96,0.00,,,0.00,Wunderground v.1.15,2013-10-16 08:35:00,
2013-10-16 04:45:00,71.1,69.9,29.96,North,358,0.0,2.0,96,0.00,,,0.00,Wunderground v.1.15,2013-10-16 08:45:00,
2013-10-16 04:55:00,71.1,69.9,29.96,North,358,1.0,2.0,96,0.00,,,0.00,Wunderground v.1.15,2013-10-16 08:55:00,
2013-10-16 05:05:00,71.0,69.8,29.96,North,358,0.0,2.0,96,0.00,,,0.00,Wunderground v.1.15,2013-10-16 09:05:00,
2013-10-16 05:10:00,71.0,69.8,29.96,North,358,0.0,2.0,96,0.00,,,0.00,Wunderground v.1.15,2013-10-16 09:10:00,
2013-10-16 05:20:00,70.9,69.7,29.96,North,358,1.0,1.0,96,0.00,,,0.00,Wunderground v.1.15,2013-10-16 09:20:00,
2013-10-16 05:25:00,70.9,69.7,29.96,North,358,1.0,2.0,96,0.00,,,0.00,Wunderground v.1.15,2013-10-16 09:25:00,
2013-10-16 05:35:00,70.8,69.6,29.96,North,358,1.0,5.0,96,0.00,,,0.00,Wunderground v.1.15,2013-10-16 09:35:00,
2013-10-16 05:40:00,70.7,69.5,29.96,North,3,1.0,2.0,96,0.00,,,0.00,Wunderground v.1.15,2013-10-16 09:40:00,
2013-10-16 05:50:00,70.6,69.4,29.97,North,3,1.0,1.0,96,0.00,,,0.00,Wunderground v.1.15,2013-10-16 09:50:00,
2013-10-16 05:55:00,70.6,69.4,29.97,North,3,0.0,2.0,96,0.00,,,0.00,Wunderground v.1.15,2013-10-16 09:55:00,
2013-10-16 06:05:00,70.5,69.3,29.97,North,3,0.0,2.0,96,0.00,,,0.00,Wunderground v.1.15,2013-10-16 10:05:00,
2013-10-16 06:10:00,70.6,69.4,29.97,North,3,0.0,2.0,96,0.00,,,0.00,Wunderground v.1.15,2013-10-16 10:10:00,
2013-10-16 06:20:00,70.6,69.4,29.97,North,3,0.0,2.0,96,0.00,,,0.00,Wunderground v.1.15,2013-10-16 10:20:00,
2013-10-16 06:30:00,70.4,69.2,29.98,North,3,0.0,2.0,96,0.00,,,0.00,Wunderground v.1.15,2013-10-16 10:30:00,
2013-10-16 06:40:00,70.4,69.2,29.98,North,3,1.0,3.0,96,0.00,,,0.00,Wunderground v.1.15,2013-10-16 10:40:00,
2013-10-16 06:45:00,70.4,69.2,29.98,North,3,1.0,3.0,96,0.00,,,0.00,Wunderground v.1.15,2013-10-16 10:45:00,
2013-10-16 06:55:00,70.3,69.1,29.98,North,3,0.0,2.0,96,0.00,,,0.00,Wunderground v.1.15,2013-10-16 10:55:00,
2013-10-16 07:00:00,70.3,69.1,29.98,North,3,0.0,0.0,96,0.00,,,0.00,Wunderground v.1.15,2013-10-16 11:00:00,
2013-10-16 07:10:00,70.3,69.1,29.98,North,3,0.0,0.0,96,0.00,,,0.00,Wunderground v.1.15,2013-10-16 11:10:00,
2013-10-16 07:20:00,70.2,69.0,29.98,North,3,0.0,0.0,96,0.00,,,0.00,Wunderground v.1.15,2013-10-16 11:20:00,
2013-10-16 07:30:00,70.3,69.1,29.99,North,3,0.0,0.0,96,0.00,,,0.00,Wunderground v.1.15,2013-10-16 11:30:00,
2013-10-16 07:40:00,70.3,69.1,29.99,North,3,0.0,0.0,96,0.00,,,0.00,Wunderground v.1.15,2013-10-16 11:40:00,
2013-10-16 07:50:00,70.1,68.9,29.99,North,3,0.0,0.0,96,0.00,,,0.00,Wunderground v.1.15,2013-10-16 11:50:00,
2013-10-16 08:00:00,70.1,69.2,29.99,North,3,0.0,0.0,97,0.00,,,0.00,Wunderground v.1.15,2013-10-16 12:00:00,
2013-10-16 08:05:00,70.2,69.3,29.99,North,3,0.0,6.0,97,0.00,,,0.00,Wunderground v.1.15,2013-10-16 12:05:00,
2013-10-16 08:15:00,70.2,69.3,30.00,North,3,0.0,6.0,97,0.00,,,0.00,Wunderground v.1.15,2013-10-16 12:15:00,
2013-10-16 08:20:00,70.3,69.4,30.00,North,3,0.0,6.0,97,0.00,,,0.00,Wunderground v.1.15,2013-10-16 12:20:00,
2013-10-16 08:30:00,70.3,69.4,29.99,North,3,0.0,6.0,97,0.00,,,0.00,Wunderground v.1.15,2013-10-16 12:30:00,
2013-10-16 08:35:00,70.3,69.4,30.00,North,3,0.0,6.0,97,0.00,,,0.00,Wunderground v.1.15,2013-10-16 12:35:00,
2013-10-16 08:45:00,70.6,69.7,30.00,North,3,0.0,6.0,97,0.00,,,0.00,Wunderground v.1.15,2013-10-16 12:45:00,
2013-10-16 08:55:00,70.4,69.5,30.00,North,3,0.0,6.0,97,0.00,,,0.00,Wunderground v.1.15,2013-10-16 12:55:00,
2013-10-16 09:05:00,70.6,69.7,30.00,North,3,0.0,6.0,97,0.00,,,0.00,Wunderground v.1.15,2013-10-16 13:05:00,
2013-10-16 09:15:00,70.7,69.8,30.01,North,3,1.0,6.0,97,0.00,,,0.00,Wunderground v.1.15,2013-10-16 13:15:00,
2013-10-16 09:25:00,70.6,69.7,30.01,North,3,0.0,6.0,97,0.00,,,0.00,Wunderground v.1.15,2013-10-16 13:25:00,
2013-10-16 09:35:00,70.7,69.8,30.01,North,3,1.0,6.0,97,0.00,,,0.00,Wunderground v.1.15,2013-10-16 13:35:00,
2013-10-16 09:40:00,70.9,70.0,30.01,North,3,0.0,6.0,97,0.00,,,0.00,Wunderground v.1.15,2013-10-16 13:40:00,
2013-10-16 09:50:00,70.9,70.0,30.01,North,3,0.0,6.0,97,0.00,,,0.00,Wunderground v.1.15,2013-10-16 13:50:00,
2013-10-16 09:55:00,71.1,70.2,30.01,North,3,0.0,6.0,97,0.00,,,0.00,Wunderground v.1.15,2013-10-16 13:55:00,
2013-10-16 10:05:00,71.3,70.4,30.01,North,3,0.0,6.0,97,0.00,,,0.00,Wunderground v.1.15,2013-10-16 14:05:00,
2013-10-16 10:10:00,71.6,70.4,30.02,North,3,0.0,6.0,96,0.00,,,0.00,Wunderground v.1.15,2013-10-16 14:10:00,
2013-10-16 10:20:00,72.0,70.8,30.01,North,3,0.0,6.0,96,0.00,,,0.00,Wunderground v.1.15,2013-10-16 14:20:00,
2013-10-16 10:25:00,71.9,70.4,30.01,North,3,0.0,6.0,95,0.00,,,0.00,Wunderground v.1.15,2013-10-16 14:25:00,
2013-10-16 10:35:00,72.7,71.2,30.01,North,3,0.0,6.0,95,0.00,,,0.00,Wunderground v.1.15,2013-10-16 14:35:00,
2013-10-16 10:45:00,73.7,71.5,30.01,North,3,0.0,6.0,93,0.00,,,0.00,Wunderground v.1.15,2013-10-16 14:45:00,
2013-10-16 10:55:00,74.1,71.6,30.01,North,3,0.0,6.0,92,0.00,,,0.00,Wunderground v.1.15,2013-10-16 14:55:00,
2013-10-16 11:00:00,74.1,71.3,30.01,North,3,0.0,6.0,91,0.00,,,0.00,Wunderground v.1.15,2013-10-16 15:00:00,
2013-10-16 11:05:00,75.2,72.1,30.01,North,3,0.0,6.0,90,0.00,,,0.00,Wunderground v.1.15,2013-10-16 15:05:00,
2013-10-16 11:15:00,75.2,71.4,30.01,North,3,0.0,6.0,88,0.00,,,0.00,Wunderground v.1.15,2013-10-16 15:15:00,
2013-10-16 11:25:00,75.0,71.5,30.01,North,3,0.0,6.0,89,0.00,,,0.00,Wunderground v.1.15,2013-10-16 15:25:00,
2013-10-16 11:35:00,76.3,72.1,30.01,North,3,0.0,6.0,87,0.00,,,0.00,Wunderground v.1.15,2013-10-16 15:35:00,
2013-10-16 11:45:00,78.5,73.3,30.01,North,3,1.0,6.0,84,0.00,,,0.00,Wunderground v.1.15,2013-10-16 15:45:00,
2013-10-16 11:55:00,78.4,72.4,30.01,North,3,1.0,6.0,82,0.00,,,0.00,Wunderground v.1.15,2013-10-16 15:55:00,
2013-10-16 12:05:00,78.6,71.2,30.01,North,3,1.0,6.0,78,0.00,,,0.00,Wunderground v.1.15,2013-10-16 16:05:00,
2013-10-16 12:10:00,79.2,72.1,30.00,North,3,0.0,6.0,79,0.00,,,0.00,Wunderground v.1.15,2013-10-16 16:10:00,
2013-10-16 12:20:00,78.8,71.0,30.00,North,353,1.0,1.0,77,0.00,,,0.00,Wunderground v.1.15,2013-10-16 16:20:00,
2013-10-16 12:30:00,78.9,69.9,30.00,North,353,0.0,6.0,74,0.00,,,0.00,Wunderground v.1.15,2013-10-16 16:30:00,
2013-10-16 12:40:00,80.1,70.3,30.00,NNW,338,1.0,6.0,72,0.00,,,0.00,Wunderground v.1.15,2013-10-16 16:40:00,
2013-10-16 12:50:00,80.9,70.6,29.99,NNW,339,1.0,6.0,71,0.00,,,0.00,Wunderground v.1.15,2013-10-16 16:50:00,
2013-10-16 13:00:00,81.4,71.1,29.99,NNW,342,2.0,2.0,71,0.00,,,0.00,Wunderground v.1.15,2013-10-16 17:00:00,
2013-10-16 13:05:00,82.3,71.1,29.99,NNW,344,1.0,6.0,69,0.00,,,0.00,Wunderground v.1.15,2013-10-16 17:05:00,
2013-10-16 13:15:00,82.8,69.4,29.98,NW,315,1.0,6.0,64,0.00,,,0.00,Wunderground v.1.15,2013-10-16 17:15:00,
2013-10-16 13:20:00,82.9,70.4,29.98,WNW,284,2.0,2.0,66,0.00,,,0.00,Wunderground v.1.15,2013-10-16 17:20:00,
2013-10-16 13:30:00,83.2,69.8,29.98,West,267,2.0,6.0,64,0.00,,,0.00,Wunderground v.1.15,2013-10-16 17:30:00,
2013-10-16 13:35:00,82.7,69.7,29.97,SW,236,2.0,6.0,65,0.00,,,0.00,Wunderground v.1.15,2013-10-16 17:35:00,
2013-10-16 13:45:00,83.8,70.3,29.97,WSW,252,1.0,6.0,64,0.00,,,0.00,Wunderground v.1.15,2013-10-16 17:45:00,
2013-10-16 13:55:00,84.5,68.6,29.96,North,10,1.0,6.0,59,0.00,,,0.00,Wunderground v.1.15,2013-10-16 17:55:00,
2013-10-16 14:05:00,84.9,70.9,29.96,West,275,1.0,6.0,63,0.00,,,0.00,Wunderground v.1.15,2013-10-16 18:05:00,
2013-10-16 14:15:00,84.7,69.3,29.95,WNW,290,1.0,6.0,60,0.00,,,0.00,Wunderground v.1.15,2013-10-16 18:15:00,
2013-10-16 14:25:00,85.0,69.1,29.95,SW,235,2.0,6.0,59,0.00,,,0.00,Wunderground v.1.15,2013-10-16 18:25:00,
2013-10-16 14:35:00,84.8,67.4,29.95,WNW,287,0.0,6.0,56,0.00,,,0.00,Wunderground v.1.15,2013-10-16 18:35:00,
2013-10-16 14:40:00,85.0,67.5,29.95,West,262,0.0,6.0,56,0.00,,,0.00,Wunderground v.1.15,2013-10-16 18:40:00,
2013-10-16 14:50:00,85.8,68.3,29.94,NNW,327,1.0,7.0,56,0.00,,,0.00,Wunderground v.1.15,2013-10-16 18:50:00,
2013-10-16 14:55:00,85.3,67.8,29.94,WNW,294,1.0,7.0,56,0.00,,,0.00,Wunderground v.1.15,2013-10-16 18:55:00,
2013-10-16 15:05:00,85.9,68.9,29.94,WSW,237,1.0,5.0,57,0.00,,,0.00,Wunderground v.1.15,2013-10-16 19:05:00,
2013-10-16 15:10:00,86.0,68.5,29.94,West,259,2.0,6.0,56,0.00,,,0.00,Wunderground v.1.15,2013-10-16 19:10:00,
2013-10-16 15:20:00,85.7,67.7,29.94,NNW,336,2.0,2.0,55,0.00,,,0.00,Wunderground v.1.15,2013-10-16 19:20:00,
2013-10-16 15:25:00,86.2,68.7,29.94,NW,310,1.0,6.0,56,0.00,,,0.00,Wunderground v.1.15,2013-10-16 19:25:00,
2013-10-16 15:35:00,86.4,68.3,29.93,NW,312,0.0,4.0,55,0.00,,,0.00,Wunderground v.1.15,2013-10-16 19:35:00,
2013-10-16 15:45:00,85.7,68.7,29.93,SW,228,1.0,6.0,57,0.00,,,0.00,Wunderground v.1.15,2013-10-16 19:45:00,
2013-10-16 15:55:00,86.1,68.6,29.93,SW,234,1.0,6.0,56,0.00,,,0.00,Wunderground v.1.15,2013-10-16 19:55:00,
2013-10-16 16:00:00,85.7,67.1,29.93,West,262,1.0,1.0,54,0.00,,,0.00,Wunderground v.1.15,2013-10-16 20:00:00,
2013-10-16 16:10:00,86.2,68.1,29.92,WSW,248,1.0,1.0,55,0.00,,,0.00,Wunderground v.1.15,2013-10-16 20:10:00,
2013-10-16 16:15:00,85.9,67.3,29.92,WSW,248,1.0,6.0,54,0.00,,,0.00,Wunderground v.1.15,2013-10-16 20:15:00,
2013-10-16 16:25:00,86.1,68.6,29.93,WSW,248,0.0,6.0,56,0.00,,,0.00,Wunderground v.1.15,2013-10-16 20:25:00,
2013-10-16 16:30:00,86.0,68.5,29.93,WSW,257,1.0,6.0,56,0.00,,,0.00,Wunderground v.1.15,2013-10-16 20:30:00,
2013-10-16 16:40:00,86.1,68.6,29.92,WNW,290,1.0,1.0,56,0.00,,,0.00,Wunderground v.1.15,2013-10-16 20:40:00,
2013-10-16 16:45:00,86.3,69.3,29.92,WNW,290,0.0,6.0,57,0.00,,,0.00,Wunderground v.1.15,2013-10-16 20:45:00,
2013-10-16 16:55:00,86.8,68.7,29.93,WNW,292,0.0,6.0,55,0.00,,,0.00,Wunderground v.1.15,2013-10-16 20:55:00,
2013-10-16 17:00:00,86.7,69.6,29.92,NNW,341,1.0,1.0,57,0.00,,,0.00,Wunderground v.1.15,2013-10-16 21:00:00,
2013-10-16 17:10:00,85.9,68.9,29.92,NNW,336,1.0,1.0,57,0.00,,,0.00,Wunderground v.1.15,2013-10-16 21:10:00,
2013-10-16 17:20:00,86.1,68.6,29.92,NNW,338,0.0,6.0,56,0.00,,,0.00,Wunderground v.1.15,2013-10-16 21:20:00,
2013-10-16 17:30:00,85.5,67.5,29.93,NNW,338,0.0,6.0,55,0.00,,,0.00,Wunderground v.1.15,2013-10-16 21:30:00,
2013-10-16 17:35:00,85.1,67.6,29.93,NNW,338,0.0,6.0,56,0.00,,,0.00,Wunderground v.1.15,2013-10-16 21:35:00,
2013-10-16 17:45:00,84.5,68.1,29.92,NNW,337,0.0,6.0,58,0.00,,,0.00,Wunderground v.1.15,2013-10-16 21:45:00,
2013-10-16 17:50:00,84.3,67.9,29.92,NNW,339,0.0,6.0,58,0.00,,,0.00,Wunderground v.1.15,2013-10-16 21:50:00,
2013-10-16 18:00:00,83.6,68.2,29.93,NNW,338,0.0,6.0,60,0.00,,,0.00,Wunderground v.1.15,2013-10-16 22:00:00,
2013-10-16 18:05:00,83.2,67.4,29.93,NNW,338,0.0,6.0,59,0.00,,,0.00,Wunderground v.1.15,2013-10-16 22:05:00,
2013-10-16 18:15:00,82.1,68.3,29.93,NNW,338,0.0,6.0,63,0.00,,,0.00,Wunderground v.1.15,2013-10-16 22:15:00,
2013-10-16 18:20:00,82.0,68.6,29.93,NNW,338,0.0,6.0,64,0.00,,,0.00,Wunderground v.1.15,2013-10-16 22:20:00,
2013-10-16 18:30:00,81.1,69.5,29.94,NNE,21,1.0,6.0,68,0.00,,,0.00,Wunderground v.1.15,2013-10-16 22:30:00,
2013-10-16 18:35:00,80.9,70.6,29.94,NNE,21,2.0,6.0,71,0.00,,,0.00,Wunderground v.1.15,2013-10-16 22:35:00,
2013-10-16 18:45:00,80.5,71.8,29.95,North,358,1.0,6.0,75,0.00,,,0.00,Wunderground v.1.15,2013-10-16 22:45:00,
2013-10-16 18:55:00,79.9,72.0,29.95,North,3,1.0,6.0,77,0.00,,,0.00,Wunderground v.1.15,2013-10-16 22:55:00,
2013-10-16 19:05:00,79.1,72.0,29.95,NNE,32,1.0,6.0,79,0.00,,,0.00,Wunderground v.1.15,2013-10-16 23:05:00,
2013-10-16 19:10:00,78.7,71.6,29.95,NNE,20,1.0,1.0,79,0.00,,,0.00,Wunderground v.1.15,2013-10-16 23:10:00,
2013-10-16 19:20:00,78.0,71.7,29.95,NNE,18,1.0,1.0,81,0.00,,,0.00,Wunderground v.1.15,2013-10-16 23:20:00,
2013-10-16 19:25:00,77.7,71.4,29.95,NNE,15,1.0,6.0,81,0.00,,,0.00,Wunderground v.1.15,2013-10-16 23:25:00,
2013-10-16 19:35:00,77.1,71.2,29.95,NNE,20,1.0,6.0,82,0.00,,,0.00,Wunderground v.1.15,2013-10-16 23:35:00,
2013-10-16 19:40:00,76.8,71.2,29.95,NNE,20,0.0,6.0,83,0.00,,,0.00,Wunderground v.1.15,2013-10-16 23:40:00,
2013-10-16 19:50:00,76.4,71.2,29.96,NE,39,1.0,1.0,84,0.00,,,0.00,Wunderground v.1.15,2013-10-16 23:50:00,
2013-10-16 19:55:00,76.2,71.4,29.96,NE,39,1.0,6.0,85,0.00,,,0.00,Wunderground v.1.15,2013-10-16 23:55:00,
2013-10-16 20:05:00,75.6,71.1,29.96,NE,39,0.0,6.0,86,0.00,,,0.00,Wunderground v.1.15,2013-10-17 00:05:00,
2013-10-16 20:15:00,75.2,71.1,29.97,NE,39,1.0,6.0,87,0.00,,,0.00,Wunderground v.1.15,2013-10-17 00:15:00,
2013-10-16 20:25:00,74.8,71.0,29.97,NE,39,0.0,6.0,88,0.00,,,0.00,Wunderground v.1.15,2013-10-17 00:25:00,
2013-10-16 20:30:00,74.7,70.9,29.97,NE,39,0.0,6.0,88,0.00,,,0.00,Wunderground v.1.15,2013-10-17 00:30:00,
2013-10-16 20:40:00,74.4,70.9,29.98,NE,39,0.0,6.0,89,0.00,,,0.00,Wunderground v.1.15,2013-10-17 00:40:00,
2013-10-16 20:45:00,74.2,71.1,29.98,NE,39,0.0,6.0,90,0.00,,,0.00,Wunderground v.1.15,2013-10-17 00:45:00,
2013-10-16 20:55:00,73.9,70.8,29.98,NE,39,0.0,6.0,90,0.00,,,0.00,Wunderground v.1.15,2013-10-17 00:55:00,
2013-10-16 21:00:00,74.0,70.9,29.98,NE,39,0.0,6.0,90,0.00,,,0.00,Wunderground v.1.15,2013-10-17 01:00:00,
2013-10-16 21:10:00,73.9,70.8,29.98,NE,39,0.0,6.0,90,0.00,,,0.00,Wunderground v.1.15,2013-10-17 01:10:00,
2013-10-16 21:15:00,73.9,71.1,29.99,NE,39,0.0,6.0,91,0.00,,,0.00,Wunderground v.1.15,2013-10-17 01:15:00,
2013-10-16 21:25:00,73.5,70.7,29.99,NE,39,0.0,6.0,91,0.00,,,0.00,Wunderground v.1.15,2013-10-17 01:25:00,
2013-10-16 21:30:00,73.2,70.4,29.99,NE,39,0.0,6.0,91,0.00,,,0.00,Wunderground v.1.15,2013-10-17 01:30:00,
2013-10-16 21:40:00,72.9,70.4,29.99,NE,39,0.0,6.0,92,0.00,,,0.00,Wunderground v.1.15,2013-10-17 01:40:00,
2013-10-16 21:45:00,72.8,70.7,29.99,NE,39,0.0,6.0,93,0.00,,,0.00,Wunderground v.1.15,2013-10-17 01:45:00,
2013-10-16 21:55:00,72.6,70.5,29.99,NE,39,0.0,6.0,93,0.00,,,0.00,Wunderground v.1.15,2013-10-17 01:55:00,
2013-10-16 22:05:00,72.5,70.4,29.99,NE,39,0.0,6.0,93,0.00,,,0.00,Wunderground v.1.15,2013-10-17 02:05:00,
2013-10-16 22:15:00,72.6,70.8,30.00,NE,39,0.0,6.0,94,0.00,,,0.00,Wunderground v.1.15,2013-10-17 02:15:00,
2013-10-16 22:20:00,72.6,70.5,30.00,NE,39,0.0,6.0,93,0.00,,,0.00,Wunderground v.1.15,2013-10-17 02:20:00,
2013-10-16 22:30:00,72.3,70.5,30.00,NE,39,0.0,6.0,94,0.00,,,0.00,Wunderground v.1.15,2013-10-17 02:30:00,
2013-10-16 22:35:00,72.2,70.4,29.99,NE,39,0.0,6.0,94,0.00,,,0.00,Wunderground v.1.15,2013-10-17 02:35:00,
2013-10-16 22:45:00,72.2,70.4,29.99,NE,39,0.0,6.0,94,0.00,,,0.00,Wunderground v.1.15,2013-10-17 02:45:00,
2013-10-16 22:50:00,72.0,70.2,29.99,NE,36,1.0,1.0,94,0.00,,,0.00,Wunderground v.1.15,2013-10-17 02:50:00,
2013-10-16 23:00:00,72.0,70.2,29.99,NNE,32,0.0,6.0,94,0.00,,,0.00,Wunderground v.1.15,2013-10-17 03:00:00,
2013-10-16 23:10:00,71.9,70.4,29.99,NNE,33,0.0,6.0,95,0.00,,,0.00,Wunderground v.1.15,2013-10-17 03:10:00,
2013-10-16 23:20:00,71.9,70.4,29.99,NNE,33,0.0,6.0,95,0.00,,,0.00,Wunderground v.1.15,2013-10-17 03:20:00,
2013-10-16 23:25:00,71.8,70.3,29.99,NNE,33,0.0,6.0,95,0.00,,,0.00,Wunderground v.1.15,2013-10-17 03:25:00,
2013-10-16 23:35:00,71.6,70.1,29.99,NNE,33,0.0,6.0,95,0.00,,,0.00,Wunderground v.1.15,2013-10-17 03:35:00,
2013-10-16 23:40:00,71.6,70.1,29.99,NNE,33,0.0,6.0,95,0.00,,,0.00,Wunderground v.1.15,2013-10-17 03:40:00,
2013-10-16 23:50:00,71.3,69.8,29.99,NNE,33,0.0,6.0,95,0.00,,,0.00,Wunderground v.1.15,2013-10-17 03:50:00,
2013-10-16 23:55:00,71.1,69.6,29.99,NNE,33,0.0,6.0,95,0.00,,,0.00,Wunderground v.1.15,2013-10-17 03:55:00,